createdAt,value
2022-08-05T00:01:36.347Z,1.00
2022-08-05T00:04:16.966Z,1.10
2022-08-05T00:06:47.194Z,0.80
2022-08-05T00:09:15.743Z,1.10
2022-08-05T00:11:56.089Z,0.82
2022-08-05T00:14:29.220Z,0.90
2022-08-05T00:17:01.973Z,0.80
2022-08-05T00:19:40.655Z,1.08
2022-08-05T00:22:13.582Z,1.15
2022-08-05T00:24:45.797Z,0.90
2022-08-05T00:27:35.848Z,1.00
2022-08-05T00:30:05.340Z,1.40
2022-08-05T00:32:39.333Z,1.08
2022-08-05T00:35:09.513Z,0.98
2022-08-05T00:37:52.356Z,1.10
2022-08-05T00:40:28.230Z,1.20
2022-08-05T00:42:59.865Z,1.10
2022-08-05T00:45:42.732Z,1.20
2022-08-05T00:48:13.134Z,1.00
2022-08-05T00:50:44.055Z,0.93
2022-08-05T00:54:00.086Z,0.90
2022-08-05T00:56:00.565Z,1.00
2022-08-05T00:58:29.786Z,0.82
2022-08-05T01:00:57.689Z,0.90
2022-08-05T01:03:30.840Z,0.80
2022-08-05T01:06:01.151Z,0.90
2022-08-05T01:08:42.701Z,0.75
2022-08-05T01:11:22.726Z,0.60
2022-08-05T01:14:11.117Z,0.88
2022-08-05T01:16:49.861Z,0.65
2022-08-05T01:19:56.954Z,0.75
2022-08-05T01:22:38.757Z,0.80
2022-08-05T01:25:40.530Z,0.80
2022-08-05T01:28:23.521Z,0.90
2022-08-05T01:30:55.693Z,0.80
2022-08-05T01:33:35.435Z,0.70
2022-08-05T01:36:12.825Z,0.80
2022-08-05T01:38:45.269Z,0.70
2022-08-05T01:41:16.032Z,1.00
2022-08-05T01:43:51.213Z,0.60
2022-08-05T01:46:42.174Z,0.70
2022-08-05T01:49:23.631Z,0.85
2022-08-05T01:51:58.846Z,1.00
2022-08-05T01:54:33.179Z,0.88
2022-08-05T01:58:11.253Z,0.90
2022-08-05T01:59:53.749Z,1.20
2022-08-05T02:02:26.028Z,1.02
2022-08-05T02:04:57.622Z,1.17
2022-08-05T02:07:26.561Z,0.88
2022-08-05T02:09:58.501Z,1.08
2022-08-05T02:12:35.725Z,1.13
2022-08-05T02:15:12.401Z,1.00
2022-08-05T02:18:30.758Z,0.98
2022-08-05T02:20:51.858Z,1.10
2022-08-05T02:23:23.810Z,1.13
2022-08-05T02:25:54.839Z,1.17
2022-08-05T02:28:28.903Z,1.00
2022-08-05T02:31:04.069Z,1.30
2022-08-05T02:33:38.864Z,1.50
2022-08-05T02:36:13.620Z,0.95
2022-08-05T02:38:53.268Z,1.40
2022-08-05T02:41:28.779Z,1.30
2022-08-05T02:44:13.040Z,1.33
2022-08-05T02:46:58.945Z,1.70
2022-08-05T02:49:36.852Z,1.40
2022-08-05T02:52:09.374Z,1.30
2022-08-05T02:54:41.553Z,1.17
2022-08-05T02:58:11.187Z,1.80
2022-08-05T03:00:02.272Z,1.63
2022-08-05T03:02:37.769Z,1.25
2022-08-05T03:05:07.959Z,1.10
2022-08-05T03:08:00.670Z,1.63
2022-08-05T03:10:25.648Z,1.58
2022-08-05T03:12:55.042Z,1.80
2022-08-05T03:15:23.533Z,1.55
2022-08-05T03:17:55.644Z,1.83
2022-08-05T03:20:24.439Z,1.50
2022-08-05T03:22:57.160Z,1.85
2022-08-05T03:25:33.725Z,2.20
2022-08-05T03:28:18.822Z,2.60
2022-08-05T03:30:48.866Z,2.40
2022-08-05T03:33:19.010Z,2.67
2022-08-05T03:35:48.289Z,2.40
2022-08-05T03:38:23.825Z,2.22
2022-08-05T03:41:00.916Z,2.90
2022-08-05T03:44:08.996Z,2.35
2022-08-05T03:46:26.790Z,2.42
2022-08-05T03:48:59.283Z,2.95
2022-08-05T03:52:39.423Z,2.80
2022-08-05T03:56:01.205Z,2.60
2022-08-05T03:57:16.797Z,2.38
2022-08-05T04:00:05.927Z,2.40
2022-08-05T04:02:52.257Z,2.35
2022-08-05T04:05:33.261Z,2.83
2022-08-05T04:08:03.287Z,3.10
2022-08-05T04:10:38.144Z,4.72
2022-08-05T04:13:07.589Z,4.50
2022-08-05T04:15:36.042Z,4.78
2022-08-05T04:18:06.709Z,4.25
2022-08-05T04:20:37.021Z,3.60
2022-08-05T04:23:05.230Z,3.67
2022-08-05T04:25:56.456Z,3.22
2022-08-05T04:28:21.063Z,3.10
2022-08-05T04:30:58.769Z,3.33
2022-08-05T04:34:18.673Z,3.33
2022-08-05T04:36:49.893Z,2.95
2022-08-05T04:39:06.280Z,3.20
2022-08-05T04:41:36.730Z,3.05
2022-08-05T04:44:09.491Z,2.95
2022-08-05T04:46:38.711Z,2.78
2022-08-05T04:49:12.406Z,2.15
2022-08-05T04:51:44.116Z,2.80
2022-08-05T04:54:12.329Z,2.10
2022-08-05T04:56:40.329Z,2.10
2022-08-05T04:59:21.388Z,2.33
2022-08-05T05:02:07.653Z,2.08
2022-08-05T05:04:47.710Z,1.80
2022-08-05T05:07:23.874Z,1.67
2022-08-05T05:09:57.575Z,1.50
2022-08-05T05:12:29.286Z,1.50
2022-08-05T05:14:57.244Z,1.23
2022-08-05T05:17:56.645Z,1.52
2022-08-05T05:20:14.816Z,1.60
2022-08-05T05:22:44.263Z,1.50
2022-08-05T05:25:16.027Z,1.30
2022-08-05T05:27:53.531Z,1.20
2022-08-05T05:30:29.542Z,1.60
2022-08-05T05:33:09.339Z,1.30
2022-08-05T05:35:47.379Z,1.40
2022-08-05T05:38:22.367Z,1.70
2022-08-05T05:40:54.875Z,1.42
2022-08-05T05:43:54.008Z,1.17
2022-08-05T05:46:17.221Z,1.63
2022-08-05T05:48:48.154Z,1.52
2022-08-05T05:51:24.473Z,1.10
2022-08-05T05:53:59.288Z,1.70
2022-08-05T05:56:34.105Z,1.70
2022-08-05T05:59:05.874Z,2.28
2022-08-05T06:01:37.381Z,2.20
2022-08-05T06:04:07.541Z,2.10
2022-08-05T06:06:36.124Z,1.98
2022-08-05T06:09:07.547Z,1.98
2022-08-05T06:11:39.326Z,1.35
2022-08-05T06:14:07.419Z,1.75
2022-08-05T06:16:36.943Z,1.73
2022-08-05T06:19:07.357Z,1.60
2022-08-05T06:21:38.847Z,1.50
2022-08-05T06:24:12.839Z,1.80
2022-08-05T06:26:51.027Z,1.90
2022-08-05T06:29:43.034Z,1.90
2022-08-05T06:32:25.173Z,1.50
2022-08-05T06:34:57.101Z,2.40
2022-08-05T06:37:52.261Z,2.00
2022-08-05T06:40:18.130Z,1.80
2022-08-05T06:42:52.175Z,1.98
2022-08-05T06:46:03.069Z,1.35
2022-08-05T06:48:37.162Z,1.40
2022-08-05T06:50:57.406Z,1.20
2022-08-05T06:53:39.391Z,1.33
2022-08-05T06:56:25.633Z,1.40
2022-08-05T06:58:57.227Z,1.58
2022-08-05T07:01:27.579Z,1.30
2022-08-05T07:04:00.415Z,1.40
2022-08-05T07:06:28.832Z,1.45
2022-08-05T07:08:59.021Z,2.38
2022-08-05T07:11:30.988Z,2.33
2022-08-05T07:14:20.418Z,1.92
2022-08-05T07:18:01.835Z,1.83
2022-08-05T07:22:36.979Z,1.40
2022-08-05T07:25:22.182Z,1.63
2022-08-05T07:27:58.526Z,1.20
2022-08-05T07:30:34.193Z,1.30
2022-08-05T07:33:05.231Z,1.90
2022-08-05T07:36:02.439Z,1.50
2022-08-05T07:38:34.078Z,1.48
2022-08-05T07:42:08.969Z,1.30
2022-08-05T07:43:56.332Z,1.85
2022-08-05T07:46:26.407Z,1.83
2022-08-05T07:49:01.747Z,2.00
2022-08-05T07:51:52.838Z,1.77
2022-08-05T07:54:31.684Z,1.80
2022-08-05T07:57:13.546Z,1.60
2022-08-05T07:59:49.004Z,1.30
2022-08-05T08:02:18.035Z,1.63
2022-08-05T08:04:48.780Z,1.60
2022-08-05T08:07:22.456Z,1.58
2022-08-05T08:09:54.866Z,1.23
2022-08-05T08:12:37.171Z,1.40
2022-08-05T08:15:15.648Z,1.30
2022-08-05T08:17:50.679Z,1.52
2022-08-05T08:20:45.293Z,1.70
2022-08-05T08:23:59.694Z,2.40
2022-08-05T08:25:59.809Z,2.63
2022-08-05T08:28:36.672Z,2.42
2022-08-05T08:31:15.081Z,2.10
2022-08-05T08:33:46.155Z,2.80
2022-08-05T08:36:39.187Z,2.00
2022-08-05T08:39:15.045Z,2.90
2022-08-05T08:41:52.310Z,2.40
2022-08-05T08:45:20.004Z,2.75
2022-08-05T08:48:07.648Z,2.20
2022-08-05T08:50:31.103Z,2.03
2022-08-05T08:53:11.990Z,2.10
2022-08-05T08:56:05.105Z,2.15
2022-08-05T08:58:37.578Z,2.10
2022-08-05T09:01:16.630Z,1.80
2022-08-05T09:03:48.098Z,1.80
2022-08-05T09:06:20.349Z,1.70
2022-08-05T09:08:49.668Z,1.80
2022-08-05T09:11:17.728Z,1.77
2022-08-05T09:14:53.967Z,1.90
2022-08-05T09:16:53.930Z,1.40
2022-08-05T09:19:27.932Z,1.50
2022-08-05T09:22:23.205Z,2.88
2022-08-05T09:24:59.848Z,2.40
2022-08-05T09:28:04.600Z,2.03
2022-08-05T09:30:23.646Z,2.83
2022-08-05T09:32:52.936Z,3.10
2022-08-05T09:35:27.293Z,2.22
2022-08-05T09:38:12.310Z,1.67
2022-08-05T09:40:53.702Z,2.20
2022-08-05T09:43:41.005Z,2.63
2022-08-05T09:46:27.622Z,2.97
2022-08-05T09:49:07.625Z,2.70
2022-08-05T09:51:49.357Z,2.40
2022-08-05T09:54:21.343Z,2.10
2022-08-05T09:56:57.541Z,2.30
2022-08-05T09:59:27.615Z,2.03
2022-08-05T10:01:58.402Z,1.80
2022-08-05T10:04:38.482Z,1.63
2022-08-05T10:07:19.729Z,1.92
2022-08-05T10:10:13.732Z,1.95
2022-08-05T10:12:50.060Z,1.60
2022-08-05T10:15:26.559Z,1.67
2022-08-05T10:18:22.964Z,2.35
2022-08-05T10:20:53.469Z,2.08
2022-08-05T10:23:50.928Z,1.60
2022-08-05T10:26:13.816Z,2.60
2022-08-05T10:28:43.608Z,2.10
2022-08-05T10:32:48.155Z,1.70
2022-08-05T10:34:01.917Z,1.70
2022-08-05T10:36:30.954Z,1.70
2022-08-05T10:39:10.187Z,1.92
2022-08-05T10:41:47.624Z,1.48
2022-08-05T10:44:19.438Z,1.98
2022-08-05T10:46:50.674Z,1.70
2022-08-05T10:49:26.966Z,1.40
2022-08-05T10:52:00.336Z,1.85
2022-08-05T10:54:56.025Z,3.10
2022-08-05T10:57:29.548Z,2.45
2022-08-05T11:00:19.784Z,1.90
2022-08-05T11:03:25.054Z,2.97
2022-08-05T11:06:06.115Z,2.20
2022-08-05T11:08:39.129Z,2.20
2022-08-05T11:11:44.340Z,2.00
2022-08-05T11:14:13.829Z,1.63
2022-08-05T11:16:56.099Z,1.75
2022-08-05T11:20:16.937Z,1.90
2022-08-05T11:22:42.297Z,2.00
2022-08-05T11:26:05.595Z,2.10
2022-08-05T11:28:44.304Z,2.00
2022-08-05T11:31:58.375Z,1.80
2022-08-05T11:34:37.332Z,1.90
2022-08-05T11:37:06.119Z,1.70
2022-08-05T11:40:00.818Z,1.83
2022-08-05T11:42:40.244Z,1.42
2022-08-05T11:45:23.278Z,1.40
2022-08-05T11:47:58.804Z,1.70
2022-08-05T11:50:27.242Z,1.52
2022-08-05T11:52:58.182Z,1.60
2022-08-05T11:55:32.040Z,1.60
2022-08-05T11:58:09.999Z,1.88
2022-08-05T12:00:44.456Z,1.90
2022-08-05T12:03:28.656Z,2.38
2022-08-05T12:06:01.992Z,1.90
2022-08-05T12:08:32.668Z,2.10
2022-08-05T12:11:05.684Z,2.30
2022-08-05T12:13:48.973Z,2.80
2022-08-05T12:16:25.693Z,3.00
2022-08-05T12:18:55.336Z,2.55
2022-08-05T12:21:30.214Z,2.30
2022-08-05T12:24:06.699Z,2.22
2022-08-05T12:26:37.311Z,2.20
2022-08-05T12:29:09.669Z,1.80
2022-08-05T12:31:49.818Z,2.30
2022-08-05T12:34:23.791Z,2.28
2022-08-05T12:36:54.876Z,1.88
2022-08-05T12:39:28.081Z,2.05
2022-08-05T12:42:02.315Z,1.80
2022-08-05T12:44:33.266Z,1.90
2022-08-05T12:47:03.835Z,1.83
2022-08-05T12:50:04.492Z,1.70
2022-08-05T12:52:38.143Z,1.73
2022-08-05T12:55:22.258Z,2.03
2022-08-05T12:58:49.931Z,1.85
2022-08-05T13:02:05.074Z,1.90
2022-08-05T13:03:41.553Z,1.77
2022-08-05T13:06:15.977Z,1.90
2022-08-05T13:08:50.638Z,1.80
2022-08-05T13:11:25.491Z,1.60
2022-08-05T13:14:25.046Z,1.48
2022-08-05T13:17:08.884Z,1.40
2022-08-05T13:19:52.455Z,1.63
2022-08-05T13:22:29.188Z,1.50
2022-08-05T13:25:00.631Z,1.70
2022-08-05T13:27:38.670Z,1.83
2022-08-05T13:30:35.144Z,1.65
2022-08-05T13:33:01.203Z,1.50
2022-08-05T13:35:47.073Z,1.50
2022-08-05T13:38:28.516Z,3.03
2022-08-05T13:41:02.256Z,2.88
2022-08-05T13:43:44.020Z,2.47
2022-08-05T13:46:14.814Z,2.53
2022-08-05T13:48:57.308Z,2.30
2022-08-05T13:51:36.416Z,2.47
2022-08-05T13:54:12.971Z,2.45
2022-08-05T13:56:45.014Z,2.90
2022-08-05T13:59:21.386Z,3.00
2022-08-05T14:01:58.038Z,2.67
2022-08-05T14:04:50.590Z,2.45
2022-08-05T14:07:59.517Z,3.25
2022-08-05T14:10:18.350Z,3.25
2022-08-05T14:12:48.600Z,4.07
2022-08-05T14:16:06.927Z,5.25
2022-08-05T14:18:05.655Z,4.43
2022-08-05T14:20:33.558Z,4.50
2022-08-05T14:23:02.858Z,4.15
2022-08-05T14:25:30.762Z,3.75
2022-08-05T14:27:59.058Z,4.15
2022-08-05T14:30:28.331Z,3.65
2022-08-05T14:32:58.807Z,3.40
2022-08-05T14:35:36.299Z,2.83
2022-08-05T14:38:32.458Z,2.05
2022-08-05T14:41:05.836Z,1.73
2022-08-05T14:43:58.767Z,1.30
2022-08-05T14:46:28.108Z,1.30
2022-08-05T14:48:57.978Z,1.40
2022-08-05T14:51:30.716Z,1.30
2022-08-05T14:54:26.953Z,1.30
2022-08-05T14:56:48.310Z,1.52
2022-08-05T14:59:16.330Z,1.30
2022-08-05T15:01:47.848Z,1.45
2022-08-05T15:04:17.342Z,1.20
2022-08-05T15:06:49.382Z,1.27
2022-08-05T15:09:51.841Z,1.02
2022-08-05T15:12:09.339Z,1.10
2022-08-05T15:14:48.279Z,1.30
2022-08-05T15:17:44.762Z,1.05
2022-08-05T15:20:11.982Z,1.30
2022-08-05T15:22:45.477Z,1.30
2022-08-05T15:25:14.857Z,1.30
2022-08-05T15:27:52.366Z,1.20
2022-08-05T15:30:20.726Z,1.05
2022-08-05T15:32:50.340Z,1.00
2022-08-05T15:35:18.634Z,1.20
2022-08-05T15:38:32.903Z,1.10
2022-08-05T15:41:02.716Z,1.03
2022-08-05T15:43:27.380Z,1.20
2022-08-05T15:46:00.626Z,1.10
2022-08-05T15:48:30.135Z,1.08
2022-08-05T15:51:03.285Z,0.83
2022-08-05T15:53:37.904Z,1.00
2022-08-05T15:56:19.602Z,0.90
2022-08-05T15:58:48.259Z,0.77
2022-08-05T16:01:18.979Z,0.80
2022-08-05T16:03:50.478Z,0.80
2022-08-05T16:06:20.894Z,0.70
2022-08-05T16:08:55.319Z,0.63
2022-08-05T16:11:43.167Z,0.77
2022-08-05T16:14:17.042Z,0.80
2022-08-05T16:16:46.528Z,0.83
2022-08-05T16:19:25.887Z,0.80
2022-08-05T16:22:03.027Z,0.70
2022-08-05T16:24:40.087Z,0.93
2022-08-05T16:27:15.962Z,0.82
2022-08-05T16:29:50.383Z,0.82
2022-08-05T16:32:28.530Z,0.80
2022-08-05T16:34:58.753Z,1.20
2022-08-05T16:38:16.375Z,1.10
2022-08-05T16:40:28.939Z,1.20
2022-08-05T16:42:58.589Z,1.27
2022-08-05T16:46:06.745Z,1.00
2022-08-05T16:48:26.012Z,1.20
2022-08-05T16:51:01.629Z,1.10
2022-08-05T16:53:32.134Z,1.00
2022-08-05T16:56:17.334Z,1.03
2022-08-05T16:58:46.480Z,0.90
2022-08-05T17:01:14.671Z,1.20
2022-08-05T17:03:42.568Z,1.10
2022-08-05T17:06:10.981Z,0.80
2022-08-05T17:08:53.581Z,0.80
2022-08-05T17:11:23.887Z,1.00
2022-08-05T17:14:05.583Z,0.95
2022-08-05T17:16:36.201Z,1.00
2022-08-05T17:19:07.121Z,0.90
2022-08-05T17:21:36.946Z,1.10
2022-08-05T17:24:14.310Z,0.90
2022-08-05T17:26:55.364Z,0.93
2022-08-05T17:29:40.260Z,0.93
2022-08-05T17:32:11.935Z,0.90
2022-08-05T17:34:47.655Z,0.80
2022-08-05T17:37:39.508Z,0.80
2022-08-05T17:40:10.738Z,0.80
2022-08-05T17:42:41.802Z,1.03
2022-08-05T17:45:22.904Z,0.80
2022-08-05T17:47:56.067Z,0.70
2022-08-05T17:50:29.958Z,1.10
2022-08-05T17:53:00.142Z,0.90
2022-08-05T17:55:37.664Z,0.60
2022-08-05T17:58:09.421Z,0.70
2022-08-05T18:00:45.395Z,0.80
2022-08-05T18:03:39.199Z,0.80
2022-08-05T18:06:11.853Z,0.63
2022-08-05T18:08:46.198Z,0.50
2022-08-05T18:11:23.830Z,0.70
2022-08-05T18:13:54.673Z,0.47
2022-08-05T18:16:24.586Z,0.70
2022-08-05T18:18:52.390Z,0.50
2022-08-05T18:21:22.816Z,0.60
2022-08-05T18:23:54.299Z,0.70
2022-08-05T18:26:27.727Z,0.57
2022-08-05T18:28:58.029Z,0.80
2022-08-05T18:31:33.963Z,0.80
2022-08-05T18:34:06.197Z,0.70
2022-08-05T18:36:36.027Z,0.80
2022-08-05T18:39:09.714Z,0.80
2022-08-05T18:41:58.534Z,0.80
2022-08-05T18:44:34.777Z,0.77
2022-08-05T18:47:05.041Z,0.80
2022-08-05T18:49:58.039Z,0.80
2022-08-05T18:52:35.729Z,0.90
2022-08-05T18:55:06.474Z,0.80
2022-08-05T18:57:43.626Z,1.00
2022-08-05T19:00:21.056Z,0.80
2022-08-05T19:03:03.916Z,0.70
2022-08-05T19:06:13.575Z,0.70
2022-08-05T19:08:30.601Z,0.70
2022-08-05T19:11:04.444Z,0.70
2022-08-05T19:13:36.026Z,0.70
2022-08-05T19:16:24.421Z,0.70
2022-08-05T19:18:56.815Z,0.50
2022-08-05T19:21:29.407Z,0.70
2022-08-05T19:24:07.724Z,0.70
2022-08-05T19:26:43.809Z,0.50
2022-08-05T19:29:35.479Z,0.60
2022-08-05T19:32:05.168Z,0.77
2022-08-05T19:34:37.697Z,0.70
2022-08-05T19:37:06.490Z,0.60
2022-08-05T19:39:45.608Z,0.73
2022-08-05T19:42:19.387Z,0.70
2022-08-05T19:45:06.009Z,0.60
2022-08-05T19:47:34.335Z,0.60
2022-08-05T19:50:07.735Z,0.70
2022-08-05T19:52:40.763Z,0.70
2022-08-05T19:56:14.630Z,0.80
2022-08-05T19:58:10.409Z,0.70
2022-08-05T20:00:46.518Z,0.63
2022-08-05T20:03:14.757Z,0.60
2022-08-05T20:05:51.263Z,0.60
2022-08-05T20:08:20.757Z,0.60
2022-08-05T20:10:53.025Z,0.70
2022-08-05T20:13:30.391Z,0.73
2022-08-05T20:16:09.951Z,0.73
2022-08-05T20:18:38.386Z,0.90
2022-08-05T20:21:08.833Z,0.70
2022-08-05T20:23:40.714Z,0.70
2022-08-05T20:26:19.962Z,0.77
2022-08-05T20:28:50.672Z,0.60
2022-08-05T20:31:21.823Z,0.80
2022-08-05T20:33:51.030Z,0.50
2022-08-05T20:36:21.450Z,0.63
2022-08-05T20:38:54.401Z,0.60
2022-08-05T20:41:44.564Z,0.70
2022-08-05T20:44:18.694Z,0.60
2022-08-05T20:46:57.785Z,0.60
2022-08-05T20:49:26.162Z,0.63
2022-08-05T20:51:57.337Z,0.70
2022-08-05T20:54:43.514Z,0.77
2022-08-05T20:57:15.035Z,0.73
2022-08-05T21:00:19.638Z,0.70
2022-08-05T21:02:55.422Z,0.80
2022-08-05T21:05:25.122Z,0.67
2022-08-05T21:07:54.359Z,0.80
2022-08-05T21:10:27.445Z,0.80
2022-08-05T21:13:08.840Z,0.90
2022-08-05T21:15:44.318Z,0.90
2022-08-05T21:18:12.370Z,1.00
2022-08-05T21:20:41.948Z,0.90
2022-08-05T21:23:13.001Z,1.20
2022-08-05T21:25:44.743Z,1.00
2022-08-05T21:28:12.820Z,1.00
2022-08-05T21:30:46.548Z,1.10
2022-08-05T21:33:22.518Z,0.93
2022-08-05T21:35:58.825Z,0.77
2022-08-05T21:38:28.519Z,0.80
2022-08-05T21:40:56.683Z,0.80
2022-08-05T21:43:25.924Z,0.70
2022-08-05T21:45:57.854Z,0.80
2022-08-05T21:48:28.791Z,0.90
2022-08-05T21:50:57.407Z,0.70
2022-08-05T21:53:27.212Z,0.80
2022-08-05T21:56:05.869Z,0.60
2022-08-05T21:58:57.043Z,0.70
2022-08-05T22:01:26.297Z,0.50
2022-08-05T22:03:54.298Z,0.80
2022-08-05T22:06:35.492Z,0.77
2022-08-05T22:09:13.647Z,0.80
2022-08-05T22:11:46.856Z,0.73
2022-08-05T22:14:34.517Z,0.80
2022-08-05T22:17:06.572Z,0.83
2022-08-05T22:20:02.747Z,0.60
2022-08-05T22:22:28.137Z,0.50
2022-08-05T22:25:20.922Z,0.70
2022-08-05T22:28:08.827Z,0.60
2022-08-05T22:30:43.994Z,0.70
2022-08-05T22:33:58.514Z,0.47
2022-08-05T22:36:14.466Z,0.50
2022-08-05T22:38:43.998Z,0.40
2022-08-05T22:42:04.152Z,0.30
2022-08-05T22:44:07.495Z,0.50
2022-08-05T22:46:39.388Z,0.20
2022-08-05T22:49:23.452Z,0.30
2022-08-05T22:52:06.671Z,0.43
2022-08-05T22:54:37.222Z,0.37
2022-08-05T22:57:07.331Z,0.60
2022-08-05T22:59:45.488Z,0.60
2022-08-05T23:02:17.905Z,0.37
2022-08-05T23:04:52.196Z,0.30
2022-08-05T23:07:22.054Z,0.57
2022-08-05T23:09:58.141Z,0.40
2022-08-05T23:12:32.687Z,0.40
2022-08-05T23:15:03.947Z,0.30
2022-08-05T23:18:02.434Z,0.30
2022-08-05T23:20:25.346Z,0.50
2022-08-05T23:22:56.089Z,0.20
2022-08-05T23:25:51.089Z,0.30
2022-08-05T23:28:12.857Z,0.20
2022-08-05T23:30:53.651Z,0.40
2022-08-05T23:34:03.008Z,0.33
2022-08-05T23:36:13.535Z,0.30
2022-08-05T23:38:43.439Z,0.30
2022-08-05T23:41:12.168Z,0.30
2022-08-05T23:44:06.073Z,0.20
2022-08-05T23:46:30.275Z,0.30
2022-08-05T23:49:00.305Z,0.20
2022-08-05T23:51:53.363Z,0.30
2022-08-05T23:54:25.949Z,0.20
2022-08-05T23:56:58.276Z,0.20
